Time;durP1;ratioP1;P1;durP2;ratioP2;P2;SDS_P1;SDS_P2;PMS_P1;PMS_P2;Temp;Humidity;BMP_temperature;BMP_pressure;BME280_temperature;BME280_humidity;BME280_pressure;Samples;Min_cycle;Max_cycle;Signal;HPM_P1;HPM_P2
2023/02/05 00:04:07;;;;;;;2.13;0.70;;;;;;;0.03;56.67;99777.91;10514889;28;20060;-76
2023/02/05 00:09:28;;;;;;;3.35;1.10;;;;;;;-0.01;57.11;99789.06;10514098;28;20040;-76
2023/02/05 00:14:49;;;;;;;2.47;1.08;;;;;;;0.01;56.86;99800.34;10528166;28;20043;-76
2023/02/05 00:20:10;;;;;;;2.92;1.20;;;;;;;-0.06;56.78;99797.97;10513795;28;20055;-76
2023/02/05 00:25:31;;;;;;;2.80;0.90;;;;;;;-0.17;56.99;99800.53;10513761;28;20496;-76
2023/02/05 00:30:52;;;;;;;1.67;0.60;;;;;;;-0.24;56.90;99787.16;10513889;28;20043;-76
2023/02/05 00:36:13;;;;;;;2.78;0.90;;;;;;;-0.40;57.02;99775.41;10513169;28;20044;-76
2023/02/05 00:41:35;;;;;;;2.50;0.77;;;;;;;-0.52;56.72;99775.69;10513328;28;20051;-76
2023/02/05 00:46:58;;;;;;;2.78;0.70;;;;;;;-0.74;56.53;99776.00;10513792;28;20047;-76
2023/02/05 00:52:19;;;;;;;1.90;0.82;;;;;;;-0.93;56.74;99778.88;10498858;28;20047;-76
2023/02/05 00:57:40;;;;;;;5.55;1.30;;;;;;;-1.11;56.91;99781.75;10512817;28;20044;-76
2023/02/05 01:03:01;;;;;;;3.88;1.40;;;;;;;-1.13;57.12;99792.41;10500610;28;20154;-75
2023/02/05 01:08:22;;;;;;;3.33;0.90;;;;;;;-1.22;57.64;99786.97;10498729;28;20047;-76
2023/02/05 01:13:44;;;;;;;2.75;0.88;;;;;;;-1.31;56.97;99784.28;10511753;28;20149;-76
2023/02/05 01:19:04;;;;;;;2.55;0.70;;;;;;;-1.45;56.91;99772.78;10511784;28;20036;-76
2023/02/05 01:24:25;;;;;;;2.10;0.68;;;;;;;-1.48;56.85;99778.44;10510436;28;20056;-76
2023/02/05 01:29:46;;;;;;;2.38;0.73;;;;;;;-1.53;57.33;99792.78;10511110;28;20498;-76
2023/02/05 01:35:08;;;;;;;3.58;0.70;;;;;;;-1.58;57.10;99791.41;10511586;28;20466;-76
2023/02/05 01:40:29;;;;;;;2.20;0.68;;;;;;;-1.58;57.54;99785.16;10497131;28;20052;-75
2023/02/05 01:46:14;;;;;;;1.95;0.52;;;;;;;-1.63;57.05;99778.34;10510933;28;20047;-76
2023/02/05 01:51:36;;;;;;;2.50;0.70;;;;;;;-1.75;56.69;99777.31;10538496;28;20040;-76
2023/02/05 01:57:02;;;;;;;3.35;1.00;;;;;;;-1.80;56.84;99780.69;10524649;28;20394;-75
2023/02/05 02:02:23;;;;;;;2.70;1.00;;;;;;;-1.82;57.22;99765.94;10524284;28;20059;-76
2023/02/05 02:07:44;;;;;;;3.08;0.90;;;;;;;-1.83;57.13;99769.91;10510741;28;20048;-76
2023/02/05 02:13:05;;;;;;;3.08;0.75;;;;;;;-1.86;57.49;99762.59;10510099;28;20036;-76
2023/02/05 02:18:26;;;;;;;2.72;0.80;;;;;;;-1.88;57.53;99767.78;10495990;28;20052;-76
2023/02/05 02:23:58;;;;;;;2.67;0.70;;;;;;;-1.98;57.39;99755.34;10509998;28;20113;-76
2023/02/05 02:29:38;;;;;;;2.42;0.70;;;;;;;-2.00;57.49;99752.31;10511115;28;20036;-76
2023/02/05 02:35:06;;;;;;;2.08;0.70;;;;;;;-2.08;57.35;99738.97;10487379;28;20406;-75
2023/02/05 02:40:36;;;;;;;4.75;0.93;;;;;;;-2.07;57.19;99739.72;10531815;28;20417;-75
2023/02/05 02:46:07;;;;;;;2.75;0.95;;;;;;;-2.13;57.78;99731.34;10519300;28;20488;-76
2023/02/05 02:51:28;;;;;;;4.70;0.90;;;;;;;-2.18;58.36;99726.53;10503331;28;20529;-76
2023/02/05 02:56:49;;;;;;;2.33;1.00;;;;;;;-2.20;58.01;99725.47;10531213;28;20040;-75
2023/02/05 03:02:10;;;;;;;3.08;0.90;;;;;;;-2.20;57.89;99720.75;10516543;28;20055;-75
2023/02/05 03:07:43;;;;;;;2.50;1.10;;;;;;;-2.26;57.99;99722.59;10517050;28;20040;-76
2023/02/05 03:13:05;;;;;;;2.45;1.00;;;;;;;-2.38;58.13;99712.59;10530022;28;20047;-78
2023/02/05 03:18:26;;;;;;;4.55;1.25;;;;;;;-2.43;58.67;99702.25;10516595;28;20036;-78
2023/02/05 03:23:47;;;;;;;4.10;1.00;;;;;;;-2.44;58.52;99696.03;10516181;28;20040;-78
2023/02/05 03:29:13;;;;;;;3.38;1.17;;;;;;;-2.49;58.53;99695.91;10529820;28;20044;-78
2023/02/05 03:34:59;;;;;;;5.35;1.40;;;;;;;-2.49;58.91;99704.09;10517599;28;20127;-78
2023/02/05 03:40:38;;;;;;;3.25;1.10;;;;;;;-2.53;58.59;99695.28;10530707;28;20040;-78
2023/02/05 03:46:05;;;;;;;2.92;1.00;;;;;;;-2.62;58.81;99696.81;10528000;28;20044;-78
2023/02/05 03:51:50;;;;;;;4.00;1.25;;;;;;;-2.55;58.91;99711.41;10520817;28;20389;-79
2023/02/05 03:57:21;;;;;;;2.85;1.08;;;;;;;-2.63;59.00;99705.47;10469677;28;20036;-78
2023/02/05 04:02:42;;;;;;;3.15;1.17;;;;;;;-2.72;59.13;99700.00;10491842;28;20056;-78
2023/02/05 04:08:09;;;;;;;2.88;1.20;;;;;;;-2.76;59.57;99711.13;10478032;28;20040;-78
2023/02/05 04:13:36;;;;;;;3.70;1.05;;;;;;;-2.75;59.65;99709.91;10492422;28;20089;-78
2023/02/05 04:19:00;;;;;;;3.07;1.20;;;;;;;-2.70;59.26;99711.25;10480203;28;20379;-78
2023/02/05 04:24:22;;;;;;;2.63;0.95;;;;;;;-2.76;59.64;99702.91;10471782;28;20502;-78
2023/02/05 04:29:43;;;;;;;4.40;1.42;;;;;;;-2.80;59.26;99724.16;10504683;28;20067;-78
2023/02/05 04:35:04;;;;;;;3.05;1.00;;;;;;;-2.82;59.55;99737.53;10476787;28;20044;-78
2023/02/05 04:40:25;;;;;;;3.65;1.10;;;;;;;-2.88;59.47;99729.19;10461942;28;20412;-78
2023/02/05 04:45:46;;;;;;;2.30;0.90;;;;;;;-2.87;59.51;99724.50;10471177;28;20098;-78
2023/02/05 04:51:08;;;;;;;1.92;0.80;;;;;;;-2.92;60.10;99725.84;10484964;28;20044;-78
2023/02/05 04:56:28;;;;;;;3.15;1.08;;;;;;;-2.94;59.98;99722.81;10470413;28;20394;-78
2023/02/05 05:01:49;;;;;;;3.08;1.50;;;;;;;-2.93;60.08;99739.97;10475242;28;20055;-78
2023/02/05 05:07:10;;;;;;;4.43;1.02;;;;;;;-2.97;60.07;99742.09;10500203;28;20044;-78
2023/02/05 05:12:30;;;;;;;4.28;1.45;;;;;;;-3.02;60.60;99742.69;10486658;28;20366;-78
2023/02/05 05:17:51;;;;;;;2.53;1.08;;;;;;;-3.10;60.16;99747.69;10502353;28;20044;-78
2023/02/05 05:23:12;;;;;;;3.03;1.30;;;;;;;-3.10;60.20;99749.66;10511087;28;20048;-78
2023/02/05 05:28:33;;;;;;;3.72;1.38;;;;;;;-3.18;60.40;99760.13;10511217;28;20508;-78
2023/02/05 05:33:54;;;;;;;5.57;1.65;;;;;;;-3.23;60.90;99750.56;10511062;28;20484;-78
2023/02/05 05:44:54;;;;;;;4.20;1.60;;;;;;;-3.26;60.79;99748.75;10515998;28;20102;-78
2023/02/05 05:50:26;;;;;;;6.07;1.50;;;;;;;-3.31;61.10;99738.41;10504432;28;20485;-77
2023/02/05 05:56:01;;;;;;;4.45;1.35;;;;;;;-3.33;61.13;99751.75;10496636;28;20043;-78
2023/02/05 06:01:34;;;;;;;4.90;1.65;;;;;;;-3.38;61.19;99755.06;10501819;28;20052;-78
2023/02/05 06:06:55;;;;;;;4.03;1.63;;;;;;;-3.39;61.01;99755.53;10483396;28;20060;-78
2023/02/05 06:12:16;;;;;;;8.10;3.55;;;;;;;-3.34;61.78;99763.88;10484182;28;20501;-78
2023/02/05 06:17:37;;;;;;;5.35;2.58;;;;;;;-3.35;61.23;99765.09;10474777;28;20040;-77
2023/02/05 06:22:58;;;;;;;7.00;3.25;;;;;;;-3.42;61.36;99762.66;10521297;28;20067;-77
2023/02/05 06:28:18;;;;;;;7.00;2.58;;;;;;;-3.43;61.95;99755.66;10502313;28;20040;-77
2023/02/05 06:33:39;;;;;;;7.95;2.30;;;;;;;-3.39;61.39;99769.94;10500857;28;20114;-78
2023/02/05 06:39:00;;;;;;;4.55;2.03;;;;;;;-3.31;62.29;99773.16;10473282;28;20516;-78
2023/02/05 06:44:23;;;;;;;6.43;2.83;;;;;;;-3.00;62.52;99778.50;10481601;28;20441;-78
2023/02/05 06:49:44;;;;;;;6.57;1.98;;;;;;;-0.64;62.79;99796.66;10515465;28;20125;-78
2023/02/05 06:55:05;;;;;;;8.35;3.25;;;;;;;2.47;59.49;99781.31;10518665;28;20095;-79
2023/02/05 07:00:26;;;;;;;8.32;3.53;;;;;;;5.17;55.22;99791.59;10524013;28;20067;-79
2023/02/05 07:05:46;;;;;;;9.43;4.30;;;;;;;7.34;52.83;99794.00;10523485;28;20080;-76
2023/02/05 07:11:07;;;;;;;5.40;2.97;;;;;;;8.93;50.57;99807.78;10523862;28;20064;-78
2023/02/05 07:16:31;;;;;;;9.05;4.32;;;;;;;10.60;49.20;99797.81;10523767;28;20466;-77
2023/02/05 07:21:51;;;;;;;6.07;2.80;;;;;;;12.15;45.93;99796.75;10528537;28;20043;-78
2023/02/05 07:27:12;;;;;;;5.68;2.75;;;;;;;12.93;40.51;99799.00;10532886;28;20047;-77
2023/02/05 07:32:34;;;;;;;5.38;2.75;;;;;;;13.78;40.88;99791.84;10520254;28;20044;-77
2023/02/05 07:37:54;;;;;;;4.88;2.38;;;;;;;15.26;36.52;99803.69;10520443;28;20535;-77
2023/02/05 07:43:15;;;;;;;6.68;2.70;;;;;;;16.21;33.97;99804.94;10505217;28;20044;-76
2023/02/05 07:48:36;;;;;;;7.13;2.60;;;;;;;16.18;33.45;99797.66;10503657;28;20059;-77
2023/02/05 07:53:57;;;;;;;5.20;2.70;;;;;;;17.45;31.50;99808.66;10505339;28;20044;-77
2023/02/05 07:59:18;;;;;;;6.45;2.20;;;;;;;18.58;32.69;99815.28;10491080;28;20379;-75
2023/02/05 08:04:39;;;;;;;4.28;1.90;;;;;;;16.67;34.39;99809.84;10518281;28;20059;-75
2023/02/05 08:09:59;;;;;;;3.80;2.00;;;;;;;17.60;28.87;99807.63;10516807;28;20043;-75
2023/02/05 08:15:20;;;;;;;2.58;1.17;;;;;;;23.57;26.89;99802.03;10539852;28;20036;-76
2023/02/05 08:20:41;;;;;;;4.38;1.92;;;;;;;24.80;18.33;99792.03;10514330;28;20064;-76
2023/02/05 08:26:01;;;;;;;5.85;3.65;;;;;;;27.90;18.73;99786.44;10516056;28;20044;-77
2023/02/05 08:31:22;;;;;;;3.40;1.65;;;;;;;25.32;18.27;99801.41;10500530;28;20036;-76
2023/02/05 08:36:43;;;;;;;2.67;1.20;;;;;;;26.36;16.93;99805.50;10481306;28;20036;-78
2023/02/05 08:42:04;;;;;;;2.20;1.63;;;;;;;27.99;15.05;99793.88;10471011;28;20072;-77
2023/02/05 08:47:25;;;;;;;3.33;2.00;;;;;;;29.70;14.22;99794.94;10485367;28;20074;-77
2023/02/05 08:52:46;;;;;;;3.93;1.90;;;;;;;30.98;12.85;99789.75;10486163;28;20045;-77
2023/02/05 08:58:07;;;;;;;3.03;1.70;;;;;;;28.36;12.19;99786.34;10485815;28;20394;-76
2023/02/05 09:03:29;;;;;;;2.63;1.83;;;;;;;31.51;11.62;99781.25;10500277;28;20057;-78
2023/02/05 09:08:50;;;;;;;3.35;1.98;;;;;;;30.76;10.61;99775.63;10531897;28;20040;-78
2023/02/05 09:14:11;;;;;;;4.80;2.38;;;;;;;32.03;8.76;99787.09;10512083;28;20043;-78
2023/02/05 09:19:32;;;;;;;;;;;;;;;31.22;8.03;99765.66;10492881;28;20115;-78
2023/02/05 09:24:53;;;;;;;3.88;1.98;;;;;;;29.99;9.91;99758.88;10498091;28;20277;-78
2023/02/05 09:30:14;;;;;;;4.60;1.65;;;;;;;31.15;9.32;99759.00;10484335;28;20486;-78
2023/02/05 09:35:35;;;;;;;;;;;;;;;29.65;7.86;99750.94;10510845;28;20113;-78
2023/02/05 09:41:14;;;;;;;3.45;1.52;;;;;;;29.19;9.24;99742.63;10511626;28;20374;-78
2023/02/05 09:46:38;;;;;;;2.13;1.33;;;;;;;29.92;8.61;99738.63;10468575;28;20040;-77
2023/02/05 09:52:09;;;;;;;4.82;1.40;;;;;;;28.58;8.94;99723.06;10483565;28;20072;-78
2023/02/05 09:57:35;;;;;;;3.90;1.20;;;;;;;29.08;8.08;99709.31;10470697;28;20044;-76
2023/02/05 10:03:23;;;;;;;3.00;1.58;;;;;;;24.89;10.04;99707.41;10469651;28;20431;-80
2023/02/05 10:08:57;;;;;;;5.85;1.60;;;;;;;22.49;11.46;99701.91;10470218;28;20577;-80
2023/02/05 10:14:44;;;;;;;3.10;1.50;;;;;;;22.54;11.45;99698.63;10482477;28;20178;-80
2023/02/05 10:20:19;;;;;;;4.25;1.40;;;;;;;19.16;12.93;99690.41;10468742;28;20473;-79
2023/02/05 10:25:47;;;;;;;3.40;1.25;;;;;;;16.52;15.24;99692.47;10454773;28;20064;-80
2023/02/05 10:31:32;;;;;;;5.47;1.45;;;;;;;18.58;14.61;99692.91;10469374;28;20045;-80
2023/02/05 10:36:56;;;;;;;5.38;1.65;;;;;;;21.77;13.03;99686.03;10510985;28;20528;-80
2023/02/05 10:42:37;;;;;;;4.90;1.23;;;;;;;20.76;13.36;99681.06;10482213;28;20051;-79
2023/02/05 10:48:17;;;;;;;3.47;1.70;;;;;;;16.20;15.51;99687.19;10470172;28;20173;-81
2023/02/05 10:53:38;;;;;;;3.50;1.42;;;;;;;13.70;16.94;99667.66;10483479;28;20056;-80
2023/02/05 10:59:00;;;;;;;2.45;1.20;;;;;;;11.59;17.64;99661.38;10494318;28;20099;-78
2023/02/05 11:04:34;;;;;;;2.53;1.10;;;;;;;10.41;20.24;99644.47;10488899;28;20070;-78
2023/02/05 11:10:04;;;;;;;8.55;1.63;;;;;;;10.31;19.81;99643.50;10502991;28;20037;-78
2023/02/05 11:15:26;;;;;;;3.83;1.33;;;;;;;10.02;20.63;99651.81;10475646;28;20045;-79
2023/02/05 11:20:54;;;;;;;5.15;1.45;;;;;;;9.83;20.46;99651.28;10515957;28;20044;-78
2023/02/05 11:26:17;;;;;;;4.13;1.55;;;;;;;9.69;21.75;99631.09;10501330;28;20094;-79
2023/02/05 11:31:38;;;;;;;3.42;1.50;;;;;;;9.11;22.25;99631.41;10515206;28;20040;-78
2023/02/05 11:37:05;;;;;;;5.82;1.55;;;;;;;8.82;23.12;99631.25;10526993;28;20071;-78
2023/02/05 11:42:25;;;;;;;5.63;1.50;;;;;;;8.14;23.17;99631.03;10520318;28;20040;-76
2023/02/05 11:47:47;;;;;;;3.58;1.58;;;;;;;8.18;23.42;99634.22;10526064;28;20040;-76
2023/02/05 11:53:13;;;;;;;4.57;1.17;;;;;;;8.29;23.61;99634.03;10517730;28;20036;-78
2023/02/05 11:58:34;;;;;;;2.88;1.20;;;;;;;8.11;24.04;99637.66;10518526;28;20382;-76
2023/02/05 12:03:58;;;;;;;5.60;1.20;;;;;;;8.01;24.38;99634.56;10550466;28;20048;-77
2023/02/05 12:09:21;;;;;;;4.30;1.05;;;;;;;8.32;24.06;99641.31;10551085;28;20040;-76
2023/02/05 12:14:46;;;;;;;3.38;1.38;;;;;;;8.71;24.38;99637.06;10531188;28;20044;-76
2023/02/05 12:20:30;;;;;;;4.97;2.00;;;;;;;8.93;24.02;99629.53;10529682;28;20497;-75
2023/02/05 12:26:16;;;;;;;7.82;1.80;;;;;;;9.53;24.00;99628.69;10531984;28;20039;-77
2023/02/05 12:31:47;;;;;;;3.90;1.13;;;;;;;9.81;23.61;99620.41;10537433;28;20040;-77
2023/02/05 12:37:27;;;;;;;7.65;1.40;;;;;;;9.55;23.75;99614.94;10539885;28;20036;-78
2023/02/05 12:43:05;;;;;;;4.38;1.33;;;;;;;9.36;23.85;99604.75;10536642;28;20484;-77
2023/02/05 12:48:48;;;;;;;3.83;1.30;;;;;;;8.41;24.67;99604.00;10518089;28;20047;-77
2023/02/05 12:54:37;;;;;;;4.30;1.13;;;;;;;7.65;25.09;99597.25;10519326;28;20045;-78
2023/02/05 13:00:03;;;;;;;4.07;1.00;;;;;;;7.56;25.87;99601.19;10488082;28;20040;-77
2023/02/05 13:05:29;;;;;;;6.00;1.67;;;;;;;7.30;26.61;99601.84;10487454;28;20055;-76
2023/02/05 13:10:55;;;;;;;6.97;1.35;;;;;;;7.07;26.85;99595.88;10496929;28;20036;-75
2023/02/05 13:16:17;;;;;;;3.78;1.13;;;;;;;7.08;26.73;99602.91;10485243;28;20074;-75
2023/02/05 13:33:10;;;;;;;2.95;0.88;;;;;;;7.63;26.63;99583.16;10487216;28;20490;-75
2023/02/05 13:38:48;;;;;;;3.65;1.05;;;;;;;7.24;26.92;99589.28;10498404;28;20097;-75
2023/02/05 13:44:12;;;;;;;3.80;0.70;;;;;;;6.77;27.83;99581.41;10485497;28;20040;-75
2023/02/05 13:49:45;;;;;;;6.43;1.50;;;;;;;6.29;28.41;99580.22;10494343;28;20383;-76
2023/02/05 13:55:19;;;;;;;2.95;1.05;;;;;;;6.38;29.52;99582.63;10504376;28;20041;-76
2023/02/05 14:00:41;;;;;;;5.35;1.13;;;;;;;6.17;29.15;99581.59;10506338;28;20060;-77
2023/02/05 14:06:26;;;;;;;4.95;1.23;;;;;;;5.85;30.46;99589.72;10504492;28;20056;-76
2023/02/05 14:11:55;;;;;;;3.60;1.08;;;;;;;5.58;29.84;99572.06;10507474;28;20036;-77
2023/02/05 14:17:31;;;;;;;3.35;1.13;;;;;;;5.70;30.16;99574.22;10495397;28;20039;-76
2023/02/05 14:22:53;;;;;;;3.45;1.10;;;;;;;5.43;30.92;99587.03;10519857;28;20043;-76
2023/02/05 14:28:14;;;;;;;6.30;1.27;;;;;;;4.94;31.51;99585.38;10502812;28;20040;-76
2023/02/05 14:33:44;;;;;;;3.80;1.20;;;;;;;4.83;31.21;99577.88;10527316;28;20044;-78
2023/02/05 14:39:17;;;;;;;3.00;1.02;;;;;;;4.62;32.37;99583.00;10526689;28;20466;-78
2023/02/05 14:44:39;;;;;;;2.60;1.00;;;;;;;4.56;31.89;99574.75;10519599;28;20555;-75
2023/02/05 14:50:08;;;;;;;4.10;1.17;;;;;;;4.45;32.20;99594.16;10477051;28;20094;-78
2023/02/05 14:55:34;;;;;;;3.70;1.30;;;;;;;4.22;31.80;99598.25;10490248;28;20052;-77
2023/02/05 15:01:34;;;;;;;4.18;1.10;;;;;;;4.04;32.77;99613.34;10488487;28;20520;-78
2023/02/05 15:06:56;;;;;;;2.72;1.13;;;;;;;3.81;32.88;99600.84;10408742;28;20041;-76
2023/02/05 15:12:31;;;;;;;2.83;1.20;;;;;;;3.77;33.35;99594.81;10443605;28;20076;-79
2023/02/05 15:17:52;;;;;;;3.20;1.05;;;;;;;3.60;32.95;99584.53;10470797;28;20048;-78
2023/02/05 15:23:26;;;;;;;3.15;1.10;;;;;;;3.29;34.14;99590.31;10470566;28;20493;-77
2023/02/05 15:28:56;;;;;;;2.67;1.10;;;;;;;3.12;34.90;99593.78;10473184;28;20064;-78
2023/02/05 15:34:26;;;;;;;4.28;1.48;;;;;;;2.88;34.54;99608.03;10486703;28;20068;-78
2023/02/05 15:39:56;;;;;;;5.43;1.17;;;;;;;2.72;36.79;99608.75;10453535;28;20548;-78
2023/02/05 15:45:23;;;;;;;4.35;1.67;;;;;;;2.60;35.16;99615.44;10431281;28;20033;-77
2023/02/05 15:51:11;;;;;;;5.80;1.88;;;;;;;2.45;36.01;99632.19;10458732;28;20041;-77
2023/02/05 15:56:36;;;;;;;5.10;2.35;;;;;;;2.35;35.71;99650.19;10459550;28;20126;-77
2023/02/05 16:02:03;;;;;;;6.22;2.10;;;;;;;2.28;35.52;99658.91;10437311;28;20080;-77
2023/02/05 16:07:29;;;;;;;9.73;2.83;;;;;;;2.14;36.45;99665.34;10471553;28;20067;-77
2023/02/05 16:12:57;;;;;;;4.03;2.00;;;;;;;1.93;36.21;99668.22;10485388;28;20127;-79
2023/02/05 16:18:22;;;;;;;7.75;2.03;;;;;;;1.86;36.33;99676.16;10499144;28;20410;-78
2023/02/05 16:23:45;;;;;;;5.88;1.88;;;;;;;1.76;36.53;99691.34;10499114;28;20490;-78
2023/02/05 16:29:06;;;;;;;5.63;2.20;;;;;;;1.76;36.35;99667.31;10457410;28;20076;-78
2023/02/05 16:34:43;;;;;;;5.05;2.53;;;;;;;1.69;37.67;99665.00;10486622;28;20056;-78
2023/02/05 16:40:05;;;;;;;5.82;2.22;;;;;;;1.52;39.47;99666.84;10478893;28;20685;-78
2023/02/05 16:45:27;;;;;;;9.18;2.55;;;;;;;1.38;40.60;99660.97;10515791;28;20043;-79
2023/02/05 16:50:49;;;;;;;6.18;2.42;;;;;;;1.26;41.01;99673.13;10467715;28;20474;-77
2023/02/05 16:56:19;;;;;;;7.20;2.80;;;;;;;1.17;39.17;99673.28;10511637;28;20068;-77
2023/02/05 17:01:41;;;;;;;8.07;2.65;;;;;;;1.02;39.58;99672.59;10498900;28;20047;-78
2023/02/05 17:07:05;;;;;;;7.63;3.10;;;;;;;0.96;39.94;99674.53;10494950;28;20074;-78
2023/02/05 17:12:32;;;;;;;8.60;3.00;;;;;;;0.85;40.80;99675.91;10457276;28;20044;-77
2023/02/05 17:17:54;;;;;;;6.55;2.88;;;;;;;0.63;41.73;99680.38;10484736;28;20267;-77
2023/02/05 17:23:16;;;;;;;6.88;2.20;;;;;;;0.59;40.80;99686.09;10456544;28;20048;-78
2023/02/05 17:28:41;;;;;;;3.97;2.08;;;;;;;0.56;41.92;99676.03;10470245;28;20470;-77
2023/02/05 17:34:03;;;;;;;4.70;2.25;;;;;;;0.50;42.61;99684.22;10485037;28;20044;-77
2023/02/05 17:39:24;;;;;;;4.32;2.15;;;;;;;0.52;42.05;99686.50;10469719;28;20048;-77
2023/02/05 17:44:45;;;;;;;7.03;2.85;;;;;;;0.47;41.55;99692.66;10469657;28;20048;-77
2023/02/05 17:50:06;;;;;;;8.18;3.10;;;;;;;0.42;42.82;99690.59;10483800;28;20037;-77
2023/02/05 17:55:27;;;;;;;6.20;2.80;;;;;;;0.34;43.64;99690.25;10488744;28;20041;-78
2023/02/05 18:00:48;;;;;;;8.20;3.13;;;;;;;0.33;42.60;99687.97;10455857;28;20048;-77
2023/02/05 18:06:11;;;;;;;4.97;2.38;;;;;;;0.24;42.93;99697.84;10413217;28;20114;-77
2023/02/05 18:11:32;;;;;;;4.38;2.70;;;;;;;0.22;42.49;99683.09;10442249;28;20037;-77
2023/02/05 18:16:52;;;;;;;9.52;3.72;;;;;;;0.22;43.96;99691.31;10427890;28;20053;-77
2023/02/05 18:22:13;;;;;;;7.35;3.22;;;;;;;0.11;44.13;99680.94;10441670;28;20489;-77
2023/02/05 18:27:34;;;;;;;7.90;3.08;;;;;;;0.01;43.96;99687.78;10427405;28;20048;-76
2023/02/05 18:32:55;;;;;;;8.73;3.22;;;;;;;0.02;43.87;99688.53;10458980;28;20048;-77
2023/02/05 18:38:16;;;;;;;6.63;3.05;;;;;;;0.00;44.31;99691.75;10468709;28;20400;-78
2023/02/05 18:43:37;;;;;;;8.27;3.60;;;;;;;-0.11;44.25;99688.81;10468694;28;20049;-76
2023/02/05 18:48:58;;;;;;;14.30;5.72;;;;;;;-0.14;44.45;99687.03;10468555;28;20048;-77
2023/02/05 18:54:19;;;;;;;10.85;4.68;;;;;;;-0.19;44.71;99676.69;10482188;28;20047;-76
2023/02/05 18:59:39;;;;;;;10.02;4.78;;;;;;;-0.24;44.56;99669.91;10467996;28;20048;-76
2023/02/05 19:05:01;;;;;;;9.68;4.70;;;;;;;-0.28;44.79;99669.34;10509316;28;20052;-76
2023/02/05 19:10:22;;;;;;;7.93;4.32;;;;;;;-0.35;45.44;99684.19;10509862;28;20044;-76
2023/02/05 19:15:43;;;;;;;10.40;5.70;;;;;;;-0.38;44.98;99696.13;10510967;28;20047;-77
2023/02/05 19:21:09;;;;;;;13.63;6.35;;;;;;;-0.46;45.22;99708.72;10502970;28;20410;-77
2023/02/05 19:26:30;;;;;;;11.52;6.18;;;;;;;-0.54;45.88;99713.06;10489391;28;20059;-77
2023/02/05 19:31:52;;;;;;;11.90;5.82;;;;;;;-0.64;46.44;99733.56;10502735;28;20066;-77
2023/02/05 19:37:13;;;;;;;13.48;6.25;;;;;;;-0.69;46.45;99720.50;10502681;28;20052;-77
2023/02/05 19:42:34;;;;;;;15.07;7.68;;;;;;;-0.75;46.30;99738.84;10488390;28;20044;-78
2023/02/05 19:47:55;;;;;;;13.68;6.57;;;;;;;-0.85;47.46;99751.13;10515935;28;20071;-77
2023/02/05 19:53:17;;;;;;;10.25;6.40;;;;;;;-0.93;47.07;99756.19;10529923;28;20174;-77
2023/02/05 19:58:39;;;;;;;12.45;6.50;;;;;;;-0.98;46.95;99754.84;10502131;28;20043;-76
2023/02/05 20:04:23;;;;;;;15.95;8.93;;;;;;;-1.04;48.56;99756.72;10501807;28;20059;-77
2023/02/05 20:09:43;;;;;;;12.57;6.85;;;;;;;-1.08;48.12;99767.09;10515669;28;20493;-77
2023/02/05 20:15:05;;;;;;;14.40;6.70;;;;;;;-1.15;48.78;99772.94;10515065;28;20044;-77
2023/02/05 20:20:26;;;;;;;13.48;6.15;;;;;;;-1.21;48.12;99774.78;10501478;28;20396;-77
2023/02/05 20:26:06;;;;;;;11.18;5.72;;;;;;;-1.28;48.85;99805.28;10507911;28;20040;-76
2023/02/05 20:31:33;;;;;;;11.93;5.78;;;;;;;-1.33;48.97;99805.91;10500677;28;20066;-77
2023/02/05 20:36:58;;;;;;;26.00;11.63;;;;;;;-1.30;48.79;99807.72;10516176;28;20079;-77
2023/02/05 20:42:19;;;;;;;13.88;7.15;;;;;;;-1.40;49.09;99793.31;10514382;28;20104;-77
2023/02/05 20:47:40;;;;;;;17.77;9.98;;;;;;;-1.42;50.22;99808.69;10513679;28;20044;-76
2023/02/05 20:53:00;;;;;;;15.73;7.55;;;;;;;-1.42;49.56;99814.19;10485941;28;20378;-78
2023/02/05 20:58:21;;;;;;;12.40;6.10;;;;;;;-1.48;49.68;99800.34;10499332;28;20051;-78
2023/02/05 21:03:44;;;;;;;13.55;6.47;;;;;;;-1.48;49.80;99798.34;10484764;28;20432;-78
2023/02/05 21:09:05;;;;;;;14.25;6.32;;;;;;;-1.48;50.19;99787.41;10498991;28;20040;-79
2023/02/05 21:14:26;;;;;;;14.80;6.60;;;;;;;-1.45;50.29;99788.44;10500925;28;20051;-78
2023/02/05 21:19:47;;;;;;;13.98;7.22;;;;;;;-1.54;51.27;99794.75;10511876;28;20076;-77
2023/02/05 21:25:11;;;;;;;15.73;6.82;;;;;;;-1.60;51.53;99804.81;10498598;28;20100;-77
2023/02/05 21:30:32;;;;;;;13.90;6.95;;;;;;;-1.68;51.26;99803.63;10498593;28;20051;-76
2023/02/05 21:35:53;;;;;;;18.70;7.45;;;;;;;-1.77;52.39;99807.13;10514184;28;20047;-77
2023/02/05 21:41:15;;;;;;;13.73;6.85;;;;;;;-1.83;52.34;99808.25;10496741;28;20075;-77
2023/02/05 21:46:36;;;;;;;12.77;6.82;;;;;;;-1.85;50.97;99799.72;10511602;28;20044;-76
2023/02/05 21:51:57;;;;;;;13.98;6.75;;;;;;;-1.91;52.04;99809.78;10497759;28;20474;-77
2023/02/05 21:57:18;;;;;;;14.80;7.28;;;;;;;-1.88;52.54;99808.84;10497404;28;20044;-76
2023/02/05 22:02:39;;;;;;;13.40;6.78;;;;;;;-1.91;52.36;99824.22;10496985;28;20052;-77
2023/02/05 22:08:00;;;;;;;14.77;7.57;;;;;;;-2.00;53.03;99837.16;10510858;28;20177;-77
2023/02/05 22:13:21;;;;;;;17.98;9.10;;;;;;;-2.16;55.83;99841.75;10511031;28;20486;-76
2023/02/05 22:18:41;;;;;;;16.80;8.35;;;;;;;-2.16;55.37;99855.41;10496810;28;20136;-77
2023/02/05 22:24:03;;;;;;;19.42;9.23;;;;;;;-2.11;54.67;99859.53;10510584;28;20047;-76
2023/02/05 22:29:24;;;;;;;16.80;7.68;;;;;;;-2.09;54.50;99849.66;10496448;28;20040;-77
2023/02/05 22:34:45;;;;;;;18.67;9.05;;;;;;;-2.12;54.99;99864.25;10496660;28;20044;-76
2023/02/05 22:40:06;;;;;;;19.05;8.93;;;;;;;-2.09;54.27;99859.84;10496540;28;20044;-77
2023/02/05 22:45:29;;;;;;;19.48;9.60;;;;;;;-2.11;53.69;99865.75;10510158;28;20040;-76
2023/02/05 22:50:50;;;;;;;18.40;9.00;;;;;;;-2.14;54.87;99880.34;10498230;28;20437;-76
2023/02/05 22:56:11;;;;;;;21.58;9.40;;;;;;;-2.20;54.59;99876.72;10504201;28;20044;-76
2023/02/05 23:01:33;;;;;;;19.45;9.73;;;;;;;-2.25;54.17;99891.00;10517947;28;20056;-76
2023/02/05 23:06:54;;;;;;;19.88;8.98;;;;;;;-2.37;54.98;99887.19;10517615;28;20044;-76
2023/02/05 23:12:15;;;;;;;15.73;8.45;;;;;;;-2.39;54.34;99878.69;10503489;28;20040;-76
2023/02/05 23:17:36;;;;;;;18.67;9.02;;;;;;;-2.51;54.80;99879.59;10503312;28;20040;-76
2023/02/05 23:22:57;;;;;;;17.55;9.88;;;;;;;-2.53;55.14;99879.25;10503324;28;20064;-77
2023/02/05 23:28:18;;;;;;;18.27;9.15;;;;;;;-2.53;54.77;99878.50;10502819;28;20040;-76
2023/02/05 23:33:40;;;;;;;18.70;9.35;;;;;;;-2.62;55.02;99880.00;10516844;28;20375;-77
2023/02/05 23:39:02;;;;;;;19.10;9.70;;;;;;;-2.73;55.97;99882.44;10486886;28;20056;-77
2023/02/05 23:44:23;;;;;;;20.38;9.93;;;;;;;-2.79;56.18;99870.59;10502483;28;20051;-76
2023/02/05 23:49:44;;;;;;;18.33;8.98;;;;;;;-2.82;56.22;99870.72;10516275;28;20040;-77
2023/02/05 23:55:06;;;;;;;21.02;9.90;;;;;;;-2.85;56.03;99861.44;10502517;28;20040;-76
